Time;durP1;ratioP1;P1;durP2;ratioP2;P2;SDS_P1;SDS_P2;PMS_P1;PMS_P2;Temp;Humidity;BMP_temperature;BMP_pressure;BME280_temperature;BME280_humidity;BME280_pressure;Samples;Min_cycle;Max_cycle;Signal;HPM_P1;HPM_P2
2021/06/06 08:40:35;;;;;;;;;;;;;;;;;;;;;
2021/06/06 08:43:09;;;;;;;23.17;17.87;;;15.80;99.90;;;;;;4616204;31;21045;-85
2021/06/06 09:04:55;;;;;;;26.77;17.07;;;15.90;99.90;;;;;;4733168;30;21087;-87
2021/06/06 09:10:44;;;;;;;32.33;19.80;;;16.00;99.90;;;;;;4682567;30;20482;-85
2021/06/06 09:13:14;;;;;;;29.87;17.10;;;16.00;99.90;;;;;;4720612;30;20550;-84
2021/06/06 09:18:46;;;;;;;24.03;18.83;;;16.10;99.90;;;;;;4819385;29;20448;-84
2021/06/06 09:21:47;;;;;;;25.40;15.70;;;16.20;99.90;;;;;;4816262;29;20499;-85
2021/06/06 09:28:02;;;;;;;;;;;;;;;;;;;;;
2021/06/06 09:40:41;;;;;;;20.10;16.40;;;16.30;99.90;;;;;;4722578;29;20515;-87
2021/06/06 09:43:22;;;;;;;22.47;17.20;;;16.30;99.90;;;;;;4823350;29;20894;-85
2021/06/06 09:46:14;;;;;;;23.67;17.80;;;16.30;99.90;;;;;;4823411;29;20483;-86
2021/06/06 09:48:51;;;;;;;21.10;16.57;;;16.30;99.90;;;;;;4823303;29;20565;-86
2021/06/06 09:51:25;;;;;;;20.40;15.83;;;16.30;99.90;;;;;;4823531;29;20459;-86
2021/06/06 09:54:06;;;;;;;22.47;17.77;;;16.20;99.90;;;;;;4822943;29;20452;-86
2021/06/06 09:56:34;;;;;;;22.00;15.97;;;16.20;99.90;;;;;;4822056;29;20459;-85
2021/06/06 09:59:18;;;;;;;23.50;17.00;;;16.20;99.90;;;;;;4823853;29;20472;-85
2021/06/06 10:01:57;;;;;;;21.07;15.50;;;16.30;99.90;;;;;;4822739;29;20553;-85
2021/06/06 10:04:27;;;;;;;20.90;15.90;;;16.30;99.90;;;;;;4822972;29;20492;-85
2021/06/06 10:06:53;;;;;;;25.73;18.90;;;16.30;99.90;;;;;;4822711;29;20459;-85
2021/06/06 10:09:29;;;;;;;16.83;14.37;;;16.30;99.90;;;;;;4821162;29;20520;-86
2021/06/06 10:12:08;;;;;;;23.80;14.80;;;16.30;99.90;;;;;;4819827;29;20514;-86
2021/06/06 10:14:42;;;;;;;27.07;17.57;;;16.30;99.90;;;;;;4830202;29;20486;-86
2021/06/06 10:17:15;;;;;;;22.73;17.10;;;16.30;99.90;;;;;;4837264;29;20494;-86
2021/06/06 10:19:49;;;;;;;22.70;16.50;;;16.30;99.90;;;;;;4834449;29;20907;-83
2021/06/06 10:22:30;;;;;;;18.57;16.60;;;16.40;99.90;;;;;;4837570;29;20533;-84
2021/06/06 10:25:07;;;;;;;23.20;17.60;;;16.50;99.90;;;;;;4833058;29;20468;-84
2021/06/06 10:27:37;;;;;;;25.40;19.43;;;16.50;99.90;;;;;;4833561;29;20863;-83
2021/06/06 10:30:08;;;;;;;28.27;25.17;;;16.60;99.90;;;;;;4833630;29;20447;-85
2021/06/06 10:32:56;;;;;;;29.97;21.83;;;16.60;99.90;;;;;;4833018;29;20464;-87
2021/06/06 10:35:44;;;;;;;;;;;;;;;;;;;;;
2021/06/06 11:07:49;;;;;;;34.43;26.93;;;16.30;99.90;;;;;;4678493;29;20469;-81
2021/06/06 11:10:38;;;;;;;41.10;30.27;;;16.30;99.90;;;;;;4827564;29;20440;-84
2021/06/06 11:13:17;;;;;;;41.23;30.90;;;16.40;99.90;;;;;;4829435;29;20464;-83
2021/06/06 11:15:56;;;;;;;40.23;28.50;;;16.50;99.90;;;;;;4832426;29;20482;-83
2021/06/06 11:18:26;;;;;;;42.80;28.03;;;16.60;99.90;;;;;;4833875;29;20456;-83
2021/06/06 11:20:56;;;;;;;41.63;31.07;;;16.70;99.90;;;;;;4842536;29;20486;-82
2021/06/06 11:23:35;;;;;;;41.73;32.07;;;16.70;99.90;;;;;;4844601;29;20548;-82
2021/06/06 11:26:14;;;;;;;51.30;34.37;;;16.70;99.90;;;;;;4834038;29;20475;-83
2021/06/06 11:28:41;;;;;;;49.37;34.13;;;16.50;99.90;;;;;;4832550;29;20470;-83
2021/06/06 11:31:23;;;;;;;42.67;31.67;;;16.50;99.90;;;;;;4832615;29;20466;-84
2021/06/06 11:34:00;;;;;;;43.43;29.70;;;16.50;99.90;;;;;;4833123;29;20827;-83
2021/06/06 11:36:32;;;;;;;50.57;34.00;;;16.50;99.90;;;;;;4831793;29;20459;-83
2021/06/06 11:39:14;;;;;;;47.30;35.97;;;16.40;99.90;;;;;;4831187;29;20545;-83
2021/06/06 11:41:46;;;;;;;53.50;36.00;;;16.40;99.90;;;;;;4831283;29;20873;-84
2021/06/06 11:44:21;;;;;;;51.97;37.67;;;16.40;99.90;;;;;;4832093;29;20567;-83
2021/06/06 11:46:53;;;;;;;63.00;37.93;;;16.40;99.90;;;;;;4832637;29;20462;-83
2021/06/06 11:49:37;;;;;;;54.80;37.73;;;16.40;99.90;;;;;;4831659;29;20837;-83
2021/06/06 11:52:09;;;;;;;56.50;40.43;;;16.30;99.90;;;;;;4832204;29;20523;-83
2021/06/06 11:54:41;;;;;;;62.30;40.60;;;16.30;99.90;;;;;;4832326;29;20494;-83
2021/06/06 11:57:09;;;;;;;66.23;43.03;;;16.20;99.90;;;;;;4832113;29;20459;-84
2021/06/06 11:59:40;;;;;;;63.73;42.40;;;16.10;99.90;;;;;;4831922;29;20463;-83
2021/06/06 12:02:12;;;;;;;65.57;42.87;;;16.10;99.90;;;;;;4831463;29;20487;-84
2021/06/06 12:04:39;;;;;;;66.80;43.00;;;16.10;99.90;;;;;;4832786;29;20478;-83
2021/06/06 12:07:12;;;;;;;67.87;45.17;;;16.10;99.90;;;;;;4832625;29;20474;-83
2021/06/06 12:09:43;;;;;;;57.70;38.67;;;16.10;99.90;;;;;;4832161;29;20539;-83
2021/06/06 12:12:13;;;;;;;60.53;40.37;;;16.20;99.90;;;;;;4831708;29;20498;-83
2021/06/06 12:14:44;;;;;;;62.97;41.53;;;16.10;99.90;;;;;;4834511;29;20479;-83
2021/06/06 12:17:24;;;;;;;69.33;42.87;;;16.10;99.90;;;;;;4832795;29;20463;-84
2021/06/06 12:19:55;;;;;;;58.30;40.63;;;16.20;99.90;;;;;;4832451;29;20545;-84
2021/06/06 12:22:31;;;;;;;64.30;40.87;;;16.20;99.90;;;;;;4831685;29;20495;-83
2021/06/06 12:25:08;;;;;;;56.23;39.27;;;16.30;99.90;;;;;;4831618;29;20512;-83
2021/06/06 12:27:42;;;;;;;60.60;41.27;;;16.40;99.90;;;;;;4832312;29;20466;-84
2021/06/06 12:30:27;;;;;;;55.33;37.50;;;16.50;99.90;;;;;;4832571;29;20508;-84
2021/06/06 12:32:58;;;;;;;54.03;39.47;;;16.60;99.90;;;;;;4832309;29;20467;-84
2021/06/06 12:35:33;;;;;;;52.70;37.87;;;16.50;99.90;;;;;;4832219;29;20498;-84
2021/06/06 12:38:01;;;;;;;49.90;35.20;;;16.60;99.90;;;;;;4832497;29;20491;-84
2021/06/06 12:40:34;;;;;;;52.70;34.87;;;16.70;99.90;;;;;;4831665;29;20491;-83
2021/06/06 12:43:04;;;;;;;43.70;31.63;;;16.80;99.90;;;;;;4834034;29;20843;-84
2021/06/06 12:45:32;;;;;;;40.37;30.87;;;16.80;99.90;;;;;;4832667;29;20457;-84
2021/06/06 12:48:11;;;;;;;41.10;27.00;;;16.80;99.90;;;;;;4832367;29;20458;-83
2021/06/06 12:50:39;;;;;;;41.27;28.50;;;16.80;99.90;;;;;;4832962;29;20545;-84
2021/06/06 12:53:19;;;;;;;38.37;29.50;;;16.80;99.90;;;;;;4831605;29;20455;-84
2021/06/06 12:55:51;;;;;;;38.23;28.23;;;16.90;99.90;;;;;;4833131;29;20480;-84
2021/06/06 12:58:28;;;;;;;41.73;28.37;;;16.90;99.90;;;;;;4832668;29;20876;-84
2021/06/06 13:00:58;;;;;;;37.13;27.57;;;16.90;99.90;;;;;;4831842;29;20490;-83
2021/06/06 13:03:33;;;;;;;40.60;32.20;;;16.90;99.90;;;;;;4832475;29;20542;-82
2021/06/06 13:06:20;;;;;;;44.43;30.80;;;16.90;99.90;;;;;;4831687;29;20854;-83
2021/06/06 13:08:47;;;;;;;41.77;30.30;;;16.90;99.90;;;;;;4832366;29;20494;-82
2021/06/06 13:11:31;;;;;;;43.33;30.70;;;16.90;99.90;;;;;;4832061;29;20451;-83
2021/06/06 13:14:05;;;;;;;44.37;33.97;;;16.80;99.90;;;;;;4833176;29;20521;-84
2021/06/06 13:16:34;;;;;;;46.47;32.70;;;16.90;99.90;;;;;;4831901;29;20500;-84
2021/06/06 13:19:04;;;;;;;50.03;35.33;;;16.80;99.90;;;;;;4833007;29;20456;-84
2021/06/06 13:21:32;;;;;;;48.87;36.10;;;16.80;99.90;;;;;;4831242;29;20501;-84
2021/06/06 13:24:22;;;;;;;;;;;;;;;;;;;;;
2021/06/06 13:26:52;;;;;;;47.17;38.23;;;16.90;99.90;;;;;;4830414;29;20455;-83
2021/06/06 13:29:32;;;;;;;56.50;40.10;;;16.90;99.90;;;;;;4832232;29;20459;-83
2021/06/06 13:32:02;;;;;;;53.23;36.10;;;16.90;99.90;;;;;;4830998;29;20495;-83
2021/06/06 13:34:28;;;;;;;60.37;38.60;;;16.90;99.90;;;;;;4831164;29;20467;-82
2021/06/06 13:36:56;;;;;;;59.03;42.67;;;16.80;99.90;;;;;;4836585;29;20502;-83
2021/06/06 13:39:25;;;;;;;60.10;40.37;;;16.80;99.90;;;;;;4836603;29;20523;-83
2021/06/06 13:41:53;;;;;;;58.90;39.37;;;16.70;99.90;;;;;;4835084;29;20554;-84
2021/06/06 13:44:20;;;;;;;68.57;44.70;;;16.60;99.90;;;;;;4835005;29;20513;-84
2021/06/06 13:46:47;;;;;;;59.93;41.43;;;16.60;99.90;;;;;;4835345;29;20451;-84
2021/06/06 13:49:13;;;;;;;70.70;46.70;;;16.50;99.90;;;;;;4835615;29;20458;-84
2021/06/06 13:51:40;;;;;;;71.67;44.20;;;16.50;99.90;;;;;;4834895;29;20514;-84
2021/06/06 13:54:08;;;;;;;68.73;47.53;;;16.60;99.90;;;;;;4834129;29;20474;-84
2021/06/06 13:56:39;;;;;;;68.57;45.10;;;16.60;99.90;;;;;;4835801;29;20524;-83
2021/06/06 13:59:08;;;;;;;81.70;52.50;;;16.60;99.90;;;;;;4835834;29;20489;-84
2021/06/06 14:01:35;;;;;;;68.70;45.37;;;16.50;99.90;;;;;;4837254;29;20490;-84
2021/06/06 14:04:01;;;;;;;72.20;48.70;;;16.50;99.90;;;;;;4838427;29;20491;-82
2021/06/06 14:06:27;;;;;;;71.47;50.70;;;16.60;99.90;;;;;;4838467;29;20465;-83
2021/06/06 14:08:54;;;;;;;68.30;47.13;;;16.50;99.90;;;;;;4839412;29;20458;-84
2021/06/06 14:11:25;;;;;;;76.97;50.50;;;16.60;99.90;;;;;;4839411;29;20455;-83
2021/06/06 14:13:51;;;;;;;75.67;49.70;;;16.70;99.90;;;;;;4838908;29;20550;-85
2021/06/06 14:16:23;;;;;;;77.17;49.70;;;16.70;99.90;;;;;;4839629;29;20612;-85
2021/06/06 14:18:51;;;;;;;66.83;44.27;;;16.80;99.90;;;;;;4838892;29;20474;-85
2021/06/06 14:21:19;;;;;;;64.70;45.47;;;16.90;99.90;;;;;;4837734;29;20499;-86
2021/06/06 14:23:46;;;;;;;74.37;47.63;;;16.90;99.90;;;;;;4838651;29;20469;-85
2021/06/06 14:26:12;;;;;;;61.00;44.80;;;17.00;99.90;;;;;;4837919;29;21021;-86
2021/06/06 14:28:39;;;;;;;62.47;42.70;;;16.90;99.90;;;;;;4838340;29;20460;-86
2021/06/06 14:31:06;;;;;;;66.93;44.97;;;16.90;99.90;;;;;;4838649;29;20462;-86
2021/06/06 14:33:34;;;;;;;67.77;43.83;;;16.90;99.90;;;;;;4838844;29;20474;-86
2021/06/06 14:36:03;;;;;;;62.73;43.63;;;17.00;99.90;;;;;;4838194;29;20505;-84
2021/06/06 14:38:31;;;;;;;61.30;42.20;;;17.10;99.90;;;;;;4838009;29;20474;-85
2021/06/06 14:40:59;;;;;;;54.47;41.93;;;17.10;99.90;;;;;;4837591;29;20593;-86
2021/06/06 14:43:26;;;;;;;52.77;39.90;;;17.20;99.90;;;;;;4838609;29;20463;-86
2021/06/06 14:45:54;;;;;;;48.23;38.60;;;17.30;99.90;;;;;;4837820;29;20479;-86
2021/06/06 14:48:24;;;;;;;54.13;42.67;;;17.40;99.90;;;;;;4838623;29;20492;-86
2021/06/06 14:50:52;;;;;;;54.90;40.97;;;17.40;99.90;;;;;;4839158;29;20520;-85
2021/06/06 14:53:21;;;;;;;55.00;42.77;;;17.50;99.90;;;;;;4838250;29;20461;-86
2021/06/06 14:55:48;;;;;;;47.80;34.77;;;17.60;99.90;;;;;;4837759;29;20537;-85
2021/06/06 14:58:14;;;;;;;43.17;35.20;;;17.70;99.90;;;;;;4838336;29;20506;-85
2021/06/06 15:00:43;;;;;;;46.37;37.77;;;17.70;99.90;;;;;;4838324;29;20501;-85
2021/06/06 15:03:11;;;;;;;49.57;38.20;;;17.70;99.90;;;;;;4837575;29;20463;-86
2021/06/06 15:05:38;;;;;;;46.13;35.10;;;17.70;99.90;;;;;;4838660;29;20498;-86
2021/06/06 15:08:09;;;;;;;45.30;33.00;;;17.70;99.90;;;;;;4838051;29;20492;-85
2021/06/06 15:10:37;;;;;;;44.97;33.53;;;17.80;99.90;;;;;;4838354;29;20522;-86
2021/06/06 15:13:03;;;;;;;40.93;33.23;;;17.70;99.90;;;;;;4836976;29;20468;-86
2021/06/06 15:15:30;;;;;;;47.20;34.53;;;17.70;99.90;;;;;;4838025;29;21003;-85
2021/06/06 15:17:56;;;;;;;37.77;33.67;;;17.70;99.90;;;;;;4837250;29;20469;-85
2021/06/06 15:20:26;;;;;;;44.60;33.20;;;17.70;99.90;;;;;;4837554;29;20471;-85
2021/06/06 15:22:53;;;;;;;39.50;32.63;;;17.70;99.90;;;;;;4838522;29;20461;-84
2021/06/06 15:25:22;;;;;;;41.27;32.67;;;17.80;99.90;;;;;;4838131;29;20477;-84
2021/06/06 15:27:49;;;;;;;42.87;33.60;;;17.90;99.90;;;;;;4838732;29;20475;-84
2021/06/06 15:30:16;;;;;;;41.63;33.90;;;17.90;99.90;;;;;;4839103;29;20529;-84
2021/06/06 15:32:43;;;;;;;41.93;34.70;;;17.90;99.90;;;;;;4839941;29;20471;-84
2021/06/06 15:35:14;;;;;;;40.60;30.83;;;17.90;99.90;;;;;;4838891;29;20479;-85
2021/06/06 15:37:40;;;;;;;42.80;35.90;;;17.90;99.90;;;;;;4837212;29;20489;-85
2021/06/06 15:40:09;;;;;;;38.17;34.10;;;18.00;99.90;;;;;;4837932;29;20836;-84
2021/06/06 15:42:37;;;;;;;36.20;31.23;;;18.00;99.90;;;;;;4837299;29;20524;-84
2021/06/06 15:45:03;;;;;;;39.10;31.40;;;18.20;99.90;;;;;;4838069;29;20550;-85
2021/06/06 15:47:33;;;;;;;36.23;32.03;;;18.20;99.90;;;;;;4836728;29;20453;-84
2021/06/06 15:50:00;;;;;;;37.90;32.67;;;18.10;99.90;;;;;;4834117;29;20430;-83
2021/06/06 15:52:26;;;;;;;39.87;34.10;;;18.10;99.90;;;;;;4841085;29;20442;-82
2021/06/06 15:54:53;;;;;;;38.17;33.97;;;18.10;99.90;;;;;;4846318;29;20520;-82
2021/06/06 15:57:19;;;;;;;42.27;35.63;;;18.20;99.90;;;;;;4838394;29;20543;-84
2021/06/06 15:59:47;;;;;;;37.93;33.83;;;18.10;99.90;;;;;;4832033;29;20449;-84
2021/06/06 16:02:18;;;;;;;38.23;34.07;;;18.10;99.90;;;;;;4819157;29;20495;-85
2021/06/06 16:04:45;;;;;;;43.30;35.33;;;18.10;99.90;;;;;;4814880;29;20515;-85
2021/06/06 16:07:11;;;;;;;42.53;38.13;;;18.10;99.90;;;;;;4814644;29;20466;-85
2021/06/06 16:09:37;;;;;;;43.27;38.53;;;18.00;99.90;;;;;;4815123;29;20466;-84
2021/06/06 16:12:04;;;;;;;45.67;35.23;;;17.90;99.90;;;;;;4815661;29;20448;-83
2021/06/06 16:14:30;;;;;;;44.30;36.53;;;17.90;99.90;;;;;;4816175;29;20485;-85
2021/06/06 16:16:58;;;;;;;40.03;34.67;;;17.80;99.90;;;;;;4817281;29;20475;-85
2021/06/06 16:19:24;;;;;;;43.30;38.77;;;17.70;99.90;;;;;;4817068;29;20464;-85
2021/06/06 16:21:52;;;;;;;41.93;37.63;;;17.70;99.90;;;;;;4816341;29;20497;-85
2021/06/06 16:24:19;;;;;;;44.80;39.33;;;17.70;99.90;;;;;;4815824;29;20572;-85
2021/06/06 16:26:45;;;;;;;42.80;37.57;;;17.70;99.90;;;;;;4815840;29;20464;-85
2021/06/06 16:29:11;;;;;;;50.63;41.00;;;17.70;99.90;;;;;;4815772;29;20470;-85
2021/06/06 16:31:38;;;;;;;52.50;40.30;;;17.70;99.90;;;;;;4814128;29;20459;-85
2021/06/06 16:34:05;;;;;;;51.50;40.40;;;17.70;99.90;;;;;;4815072;29;20472;-84
2021/06/06 16:36:32;;;;;;;50.83;41.27;;;17.60;99.90;;;;;;4818199;29;20466;-84
2021/06/06 16:38:59;;;;;;;50.43;43.23;;;17.60;99.90;;;;;;4818223;29;20471;-85
2021/06/06 16:41:27;;;;;;;51.53;41.30;;;17.60;99.90;;;;;;4817832;29;20912;-85
2021/06/06 16:43:53;;;;;;;52.00;40.60;;;17.60;99.90;;;;;;4818254;29;20457;-85
2021/06/06 16:46:20;;;;;;;50.17;40.07;;;17.60;99.90;;;;;;4817820;29;20466;-84
2021/06/06 16:48:47;;;;;;;51.47;40.37;;;17.60;99.90;;;;;;4817044;29;20459;-83
2021/06/06 16:51:16;;;;;;;43.30;38.57;;;17.70;99.90;;;;;;4816292;29;20457;-85
2021/06/06 16:53:43;;;;;;;46.77;38.77;;;17.70;99.90;;;;;;4815440;29;20452;-84
2021/06/06 16:56:12;;;;;;;47.80;40.57;;;17.70;99.90;;;;;;4814819;29;20561;-85
2021/06/06 16:58:38;;;;;;;42.00;37.03;;;17.70;99.90;;;;;;4816311;29;20487;-84
2021/06/06 17:01:10;;;;;;;39.93;35.53;;;17.80;99.90;;;;;;4816247;29;20557;-84
2021/06/06 17:03:37;;;;;;;39.03;34.87;;;17.90;99.90;;;;;;4816489;29;20469;-84
2021/06/06 17:06:03;;;;;;;41.03;36.47;;;17.80;99.90;;;;;;4817767;29;20509;-84
2021/06/06 17:08:31;;;;;;;39.33;35.10;;;17.80;99.90;;;;;;4818614;29;20464;-85
2021/06/06 17:10:58;;;;;;;42.90;38.13;;;17.90;99.90;;;;;;4818395;29;20457;-85
2021/06/06 17:13:27;;;;;;;39.67;34.53;;;18.00;99.90;;;;;;4820226;29;20461;-84
2021/06/06 17:15:56;;;;;;;40.80;34.23;;;18.00;99.90;;;;;;4815294;29;20491;-84
2021/06/06 17:18:23;;;;;;;39.50;33.80;;;17.90;99.90;;;;;;4817850;29;20461;-85
2021/06/06 17:20:51;;;;;;;39.60;35.30;;;18.00;99.90;;;;;;4817534;29;20561;-85
2021/06/06 17:23:21;;;;;;;38.50;34.40;;;17.90;99.90;;;;;;4817496;29;20476;-84
2021/06/06 17:25:48;;;;;;;39.30;34.93;;;17.90;99.90;;;;;;4817322;29;20490;-83
2021/06/06 17:28:14;;;;;;;39.87;34.47;;;18.00;99.90;;;;;;4818047;29;20471;-85
2021/06/06 17:30:42;;;;;;;38.70;34.80;;;18.00;99.90;;;;;;4817292;29;20474;-85
2021/06/06 17:33:11;;;;;;;38.77;34.70;;;18.10;99.90;;;;;;4817444;29;20965;-85
2021/06/06 17:35:40;;;;;;;40.47;34.17;;;18.10;99.90;;;;;;4818357;29;20486;-85
2021/06/06 17:38:08;;;;;;;36.80;32.80;;;17.90;99.90;;;;;;4821967;29;20535;-85
2021/06/06 17:40:35;;;;;;;37.40;33.33;;;18.00;99.90;;;;;;4821322;29;20462;-85
2021/06/06 17:43:04;;;;;;;41.63;36.17;;;18.00;99.90;;;;;;4820626;29;20453;-82
2021/06/06 17:45:31;;;;;;;39.53;35.27;;;18.00;99.90;;;;;;4820322;29;20491;-85
2021/06/06 17:47:57;;;;;;;37.73;33.50;;;18.00;99.90;;;;;;4837275;29;20457;-85
2021/06/06 17:50:27;;;;;;;38.40;34.40;;;18.00;99.90;;;;;;4837444;29;20465;-85
2021/06/06 17:52:54;;;;;;;42.53;35.20;;;18.00;99.90;;;;;;4837341;29;20453;-85
2021/06/06 17:55:22;;;;;;;37.37;33.30;;;18.00;99.90;;;;;;4837466;29;20561;-84
2021/06/06 17:57:50;;;;;;;40.00;33.37;;;17.90;99.90;;;;;;4836365;29;20460;-85
2021/06/06 18:00:19;;;;;;;35.70;31.90;;;17.80;99.90;;;;;;4836829;29;20967;-84
2021/06/06 18:02:45;;;;;;;39.17;35.17;;;17.80;99.90;;;;;;4837341;29;20497;-85
2021/06/06 18:05:12;;;;;;;41.33;34.97;;;17.80;99.90;;;;;;4838544;29;20486;-85
2021/06/06 18:07:38;;;;;;;39.40;34.50;;;17.70;99.90;;;;;;4839634;29;20468;-84
2021/06/06 18:10:07;;;;;;;41.50;34.03;;;17.70;99.90;;;;;;4840183;29;20866;-83
2021/06/06 18:12:34;;;;;;;41.90;37.60;;;17.70;99.90;;;;;;4839771;29;20819;-83
2021/06/06 18:15:01;;;;;;;41.50;33.87;;;17.70;99.90;;;;;;4839586;29;20472;-84
2021/06/06 18:17:28;;;;;;;43.90;38.10;;;17.70;99.90;;;;;;4839788;29;20893;-84
2021/06/06 18:19:54;;;;;;;48.47;37.53;;;17.50;99.90;;;;;;4839484;29;20453;-84
2021/06/06 18:22:21;;;;;;;42.63;36.70;;;17.60;99.90;;;;;;4839420;29;20508;-85
2021/06/06 18:24:48;;;;;;;37.60;33.33;;;17.50;99.90;;;;;;4839651;29;21089;-84
2021/06/06 18:27:14;;;;;;;43.13;37.10;;;17.50;99.90;;;;;;4839967;29;20456;-84
2021/06/06 18:29:41;;;;;;;44.37;38.17;;;17.50;99.90;;;;;;4839205;29;20463;-83
2021/06/06 18:32:08;;;;;;;46.40;38.03;;;17.40;99.90;;;;;;4838729;29;20452;-85
2021/06/06 18:34:35;;;;;;;40.27;34.97;;;17.40;99.90;;;;;;4839542;29;20517;-83
2021/06/06 18:37:03;;;;;;;46.83;39.53;;;17.40;99.90;;;;;;4840036;29;20469;-84
2021/06/06 18:39:29;;;;;;;45.47;39.30;;;17.30;99.90;;;;;;4840046;29;20491;-84
2021/06/06 18:41:56;;;;;;;38.87;34.33;;;17.30;99.90;;;;;;4838554;29;20504;-84
2021/06/06 18:44:25;;;;;;;43.10;35.30;;;17.30;99.90;;;;;;4839875;29;20513;-84
2021/06/06 18:46:52;;;;;;;39.17;34.87;;;17.20;99.90;;;;;;4840164;29;20475;-84
2021/06/06 18:49:19;;;;;;;46.07;37.53;;;17.20;99.90;;;;;;4842391;29;20455;-84
2021/06/06 18:51:50;;;;;;;42.70;36.37;;;17.20;99.90;;;;;;4839933;29;20471;-85
2021/06/06 18:54:16;;;;;;;41.40;34.67;;;17.20;99.90;;;;;;4841740;29;21180;-84
2021/06/06 18:56:43;;;;;;;41.53;34.90;;;17.30;99.90;;;;;;4837671;29;20455;-82
2021/06/06 18:59:10;;;;;;;36.47;32.57;;;17.30;99.90;;;;;;4836819;29;20489;-84
2021/06/06 19:01:39;;;;;;;46.27;36.20;;;17.20;99.90;;;;;;4840323;29;20501;-84
2021/06/06 19:04:06;;;;;;;40.10;35.23;;;17.10;99.90;;;;;;4838347;29;20470;-84
2021/06/06 19:06:36;;;;;;;36.17;30.23;;;17.00;99.90;;;;;;4841086;29;20481;-83
2021/06/06 19:09:06;;;;;;;42.17;32.77;;;17.10;99.90;;;;;;4841290;29;20496;-84
2021/06/06 19:11:34;;;;;;;36.30;32.33;;;17.20;99.90;;;;;;4841008;29;20787;-84
2021/06/06 19:14:01;;;;;;;35.17;27.80;;;17.20;99.90;;;;;;4840632;29;20504;-85
2021/06/06 19:16:27;;;;;;;34.63;30.50;;;17.00;99.90;;;;;;4840523;29;20519;-84
2021/06/06 19:18:54;;;;;;;34.83;30.67;;;17.00;99.90;;;;;;4840315;29;20456;-84
2021/06/06 19:21:20;;;;;;;33.33;28.63;;;17.10;99.90;;;;;;4840193;29;20483;-83
2021/06/06 19:23:47;;;;;;;30.07;26.23;;;17.00;99.90;;;;;;4839297;29;20461;-85
2021/06/06 19:26:24;;;;;;;28.20;25.20;;;17.00;99.90;;;;;;4837476;29;20825;-85
2021/06/06 19:28:52;;;;;;;31.63;28.30;;;17.00;99.90;;;;;;4834091;29;20453;-85
2021/06/06 19:31:29;;;;;;;32.50;28.03;;;17.00;99.90;;;;;;4834518;29;20463;-85
2021/06/06 19:34:19;;;;;;;33.17;29.07;;;16.90;99.90;;;;;;4827937;29;20444;-85
2021/06/06 19:41:02;;;;;;;;;;;;;;;;;;;;;
2021/06/06 20:03:42;;;;;;;;;;;;;;;;;;;;;
2021/06/06 20:25:01;;;;;;;27.97;25.07;;;16.60;99.90;;;;;;4702016;30;20545;-86
